sensor_id;sensor_type;location;lat;lon;timestamp;temperature;humidity
16174;DHT22;14031;50.158;8.626;2023-09-18T00:02:18;21.40;99.90
16174;DHT22;14031;50.158;8.626;2023-09-18T00:04:45;21.40;99.90
16174;DHT22;14031;50.158;8.626;2023-09-18T00:07:13;21.40;99.90
16174;DHT22;14031;50.158;8.626;2023-09-18T00:09:40;21.40;99.90
16174;DHT22;14031;50.158;8.626;2023-09-18T00:12:08;21.40;99.90
16174;DHT22;14031;50.158;8.626;2023-09-18T00:14:35;21.30;99.90
16174;DHT22;14031;50.158;8.626;2023-09-18T00:17:02;21.20;99.90
16174;DHT22;14031;50.158;8.626;2023-09-18T00:19:29;21.20;99.90
16174;DHT22;14031;50.158;8.626;2023-09-18T00:21:56;21.20;99.90
16174;DHT22;14031;50.158;8.626;2023-09-18T00:24:26;21.20;99.90
16174;DHT22;14031;50.158;8.626;2023-09-18T00:26:52;21.20;99.90
16174;DHT22;14031;50.158;8.626;2023-09-18T00:29:21;21.10;99.90
16174;DHT22;14031;50.158;8.626;2023-09-18T00:31:47;21.10;99.90
16174;DHT22;14031;50.158;8.626;2023-09-18T00:34:14;21.10;99.90
16174;DHT22;14031;50.158;8.626;2023-09-18T00:36:41;21.10;99.90
16174;DHT22;14031;50.158;8.626;2023-09-18T00:39:07;21.10;99.90
16174;DHT22;14031;50.158;8.626;2023-09-18T00:41:35;21.10;99.90
16174;DHT22;14031;50.158;8.626;2023-09-18T00:44:02;21.00;99.90
16174;DHT22;14031;50.158;8.626;2023-09-18T00:46:32;21.10;99.90
16174;DHT22;14031;50.158;8.626;2023-09-18T00:48:59;21.10;99.90
16174;DHT22;14031;50.158;8.626;2023-09-18T00:51:26;21.00;99.90
16174;DHT22;14031;50.158;8.626;2023-09-18T00:53:53;21.00;99.90
16174;DHT22;14031;50.158;8.626;2023-09-18T00:56:20;21.00;99.90
16174;DHT22;14031;50.158;8.626;2023-09-18T00:58:47;21.00;99.90
16174;DHT22;14031;50.158;8.626;2023-09-18T01:01:15;20.90;99.90
16174;DHT22;14031;50.158;8.626;2023-09-18T01:03:49;20.90;99.90
16174;DHT22;14031;50.158;8.626;2023-09-18T01:06:16;20.90;99.90
16174;DHT22;14031;50.158;8.626;2023-09-18T01:08:43;20.90;99.90
16174;DHT22;14031;50.158;8.626;2023-09-18T01:11:19;20.90;99.90
16174;DHT22;14031;50.158;8.626;2023-09-18T01:13:51;20.90;99.90
16174;DHT22;14031;50.158;8.626;2023-09-18T01:16:25;20.90;99.90
16174;DHT22;14031;50.158;8.626;2023-09-18T01:18:55;20.90;99.90
16174;DHT22;14031;50.158;8.626;2023-09-18T01:21:21;20.90;99.90
16174;DHT22;14031;50.158;8.626;2023-09-18T01:23:50;20.90;99.90
16174;DHT22;14031;50.158;8.626;2023-09-18T01:26:16;20.90;99.90
16174;DHT22;14031;50.158;8.626;2023-09-18T01:28:43;20.90;99.90
16174;DHT22;14031;50.158;8.626;2023-09-18T01:31:10;21.00;99.90
16174;DHT22;14031;50.158;8.626;2023-09-18T01:33:37;20.90;99.90
16174;DHT22;14031;50.158;8.626;2023-09-18T01:36:06;20.90;99.90
16174;DHT22;14031;50.158;8.626;2023-09-18T01:38:34;20.90;99.90
16174;DHT22;14031;50.158;8.626;2023-09-18T01:41:03;20.90;99.90
16174;DHT22;14031;50.158;8.626;2023-09-18T01:43:29;20.90;99.90
16174;DHT22;14031;50.158;8.626;2023-09-18T01:45:57;20.90;99.90
16174;DHT22;14031;50.158;8.626;2023-09-18T01:48:24;20.90;99.90
16174;DHT22;14031;50.158;8.626;2023-09-18T01:50:51;20.90;99.90
16174;DHT22;14031;50.158;8.626;2023-09-18T01:53:17;20.90;99.90
16174;DHT22;14031;50.158;8.626;2023-09-18T01:55:44;20.90;99.90
16174;DHT22;14031;50.158;8.626;2023-09-18T01:58:14;20.90;99.90
16174;DHT22;14031;50.158;8.626;2023-09-18T02:00:40;20.80;99.90
16174;DHT22;14031;50.158;8.626;2023-09-18T02:03:07;20.90;99.90
16174;DHT22;14031;50.158;8.626;2023-09-18T02:05:34;20.90;99.90
16174;DHT22;14031;50.158;8.626;2023-09-18T02:08:02;21.00;99.90
16174;DHT22;14031;50.158;8.626;2023-09-18T02:10:29;20.90;99.90
16174;DHT22;14031;50.158;8.626;2023-09-18T02:12:56;20.90;99.90
16174;DHT22;14031;50.158;8.626;2023-09-18T02:15:24;20.90;99.90
16174;DHT22;14031;50.158;8.626;2023-09-18T02:17:50;20.90;99.90
16174;DHT22;14031;50.158;8.626;2023-09-18T02:20:18;21.00;99.90
16174;DHT22;14031;50.158;8.626;2023-09-18T02:22:45;21.00;99.90
16174;DHT22;14031;50.158;8.626;2023-09-18T02:25:12;21.00;99.90
16174;DHT22;14031;50.158;8.626;2023-09-18T02:27:39;20.90;99.90
16174;DHT22;14031;50.158;8.626;2023-09-18T02:30:07;21.00;99.90
16174;DHT22;14031;50.158;8.626;2023-09-18T02:32:36;21.00;99.90
16174;DHT22;14031;50.158;8.626;2023-09-18T02:35:04;21.10;99.90
16174;DHT22;14031;50.158;8.626;2023-09-18T02:37:32;21.10;99.90
16174;DHT22;14031;50.158;8.626;2023-09-18T02:39:59;21.10;99.90
16174;DHT22;14031;50.158;8.626;2023-09-18T02:42:26;21.10;99.90
16174;DHT22;14031;50.158;8.626;2023-09-18T02:44:52;21.10;99.90
16174;DHT22;14031;50.158;8.626;2023-09-18T02:47:19;21.00;99.90
16174;DHT22;14031;50.158;8.626;2023-09-18T02:49:47;21.10;99.90
16174;DHT22;14031;50.158;8.626;2023-09-18T02:52:14;21.00;99.90
16174;DHT22;14031;50.158;8.626;2023-09-18T02:54:40;21.00;99.90
16174;DHT22;14031;50.158;8.626;2023-09-18T02:57:07;20.90;99.90
16174;DHT22;14031;50.158;8.626;2023-09-18T02:59:34;20.90;99.90
16174;DHT22;14031;50.158;8.626;2023-09-18T03:02:01;20.90;99.90
16174;DHT22;14031;50.158;8.626;2023-09-18T03:04:31;20.90;99.90
16174;DHT22;14031;50.158;8.626;2023-09-18T03:06:59;20.90;99.90
16174;DHT22;14031;50.158;8.626;2023-09-18T03:09:25;20.90;99.90
16174;DHT22;14031;50.158;8.626;2023-09-18T03:11:52;20.90;99.90
16174;DHT22;14031;50.158;8.626;2023-09-18T03:14:19;20.90;99.90
16174;DHT22;14031;50.158;8.626;2023-09-18T03:16:46;20.80;99.90
16174;DHT22;14031;50.158;8.626;2023-09-18T03:19:12;20.80;99.90
16174;DHT22;14031;50.158;8.626;2023-09-18T03:21:39;20.80;99.90
16174;DHT22;14031;50.158;8.626;2023-09-18T03:24:07;20.80;99.90
16174;DHT22;14031;50.158;8.626;2023-09-18T03:26:34;20.80;99.90
16174;DHT22;14031;50.158;8.626;2023-09-18T03:29:01;20.70;99.90
16174;DHT22;14031;50.158;8.626;2023-09-18T03:31:27;20.70;99.90
16174;DHT22;14031;50.158;8.626;2023-09-18T03:33:54;20.70;99.90
16174;DHT22;14031;50.158;8.626;2023-09-18T03:36:21;20.70;99.90
16174;DHT22;14031;50.158;8.626;2023-09-18T03:38:49;20.70;99.90
16174;DHT22;14031;50.158;8.626;2023-09-18T03:41:17;20.60;99.90
16174;DHT22;14031;50.158;8.626;2023-09-18T03:43:43;20.70;99.90
16174;DHT22;14031;50.158;8.626;2023-09-18T03:46:10;20.60;99.90
16174;DHT22;14031;50.158;8.626;2023-09-18T03:48:37;20.60;99.90
16174;DHT22;14031;50.158;8.626;2023-09-18T03:51:04;20.60;99.90
16174;DHT22;14031;50.158;8.626;2023-09-18T03:53:32;20.60;99.90
16174;DHT22;14031;50.158;8.626;2023-09-18T03:55:58;20.60;99.90
16174;DHT22;14031;50.158;8.626;2023-09-18T03:58:26;20.60;99.90
16174;DHT22;14031;50.158;8.626;2023-09-18T04:00:53;20.60;99.90
16174;DHT22;14031;50.158;8.626;2023-09-18T04:03:20;20.60;99.90
16174;DHT22;14031;50.158;8.626;2023-09-18T04:05:46;20.60;99.90
16174;DHT22;14031;50.158;8.626;2023-09-18T04:08:13;20.60;99.90
16174;DHT22;14031;50.158;8.626;2023-09-18T04:10:40;20.60;99.90
16174;DHT22;14031;50.158;8.626;2023-09-18T04:13:07;20.50;99.90
16174;DHT22;14031;50.158;8.626;2023-09-18T04:15:35;20.50;99.90
16174;DHT22;14031;50.158;8.626;2023-09-18T04:18:04;20.50;99.90
16174;DHT22;14031;50.158;8.626;2023-09-18T04:20:31;20.50;99.90
16174;DHT22;14031;50.158;8.626;2023-09-18T04:23:19;20.50;99.90
16174;DHT22;14031;50.158;8.626;2023-09-18T04:25:46;20.50;99.90
16174;DHT22;14031;50.158;8.626;2023-09-18T04:28:12;20.50;99.90
16174;DHT22;14031;50.158;8.626;2023-09-18T04:30:41;20.50;99.90
16174;DHT22;14031;50.158;8.626;2023-09-18T04:33:07;20.50;99.90
16174;DHT22;14031;50.158;8.626;2023-09-18T04:35:34;20.40;99.90
16174;DHT22;14031;50.158;8.626;2023-09-18T04:38:02;20.40;99.90
16174;DHT22;14031;50.158;8.626;2023-09-18T04:40:29;20.40;99.90
16174;DHT22;14031;50.158;8.626;2023-09-18T04:42:57;20.40;99.90
16174;DHT22;14031;50.158;8.626;2023-09-18T04:45:24;20.40;99.90
16174;DHT22;14031;50.158;8.626;2023-09-18T04:47:53;20.40;99.90
16174;DHT22;14031;50.158;8.626;2023-09-18T04:50:20;20.30;99.90
16174;DHT22;14031;50.158;8.626;2023-09-18T04:52:46;20.40;99.90
16174;DHT22;14031;50.158;8.626;2023-09-18T04:55:13;20.30;99.90
16174;DHT22;14031;50.158;8.626;2023-09-18T04:57:41;20.40;99.90
16174;DHT22;14031;50.158;8.626;2023-09-18T05:00:08;20.30;99.90
16174;DHT22;14031;50.158;8.626;2023-09-18T05:02:38;20.30;99.90
16174;DHT22;14031;50.158;8.626;2023-09-18T05:05:07;20.30;99.90
16174;DHT22;14031;50.158;8.626;2023-09-18T05:07:35;20.30;99.90
16174;DHT22;14031;50.158;8.626;2023-09-18T05:10:02;20.30;99.90
16174;DHT22;14031;50.158;8.626;2023-09-18T05:12:30;20.30;99.90
16174;DHT22;14031;50.158;8.626;2023-09-18T05:14:57;20.30;99.90
16174;DHT22;14031;50.158;8.626;2023-09-18T05:17:39;20.30;99.90
16174;DHT22;14031;50.158;8.626;2023-09-18T05:20:10;20.40;99.90
16174;DHT22;14031;50.158;8.626;2023-09-18T05:22:39;20.40;99.90
16174;DHT22;14031;50.158;8.626;2023-09-18T05:25:06;20.30;99.90
16174;DHT22;14031;50.158;8.626;2023-09-18T05:27:33;20.30;99.90
16174;DHT22;14031;50.158;8.626;2023-09-18T05:30:00;20.40;99.90
16174;DHT22;14031;50.158;8.626;2023-09-18T05:32:27;20.40;99.90
16174;DHT22;14031;50.158;8.626;2023-09-18T05:34:53;20.40;99.90
16174;DHT22;14031;50.158;8.626;2023-09-18T05:37:21;20.40;99.90
16174;DHT22;14031;50.158;8.626;2023-09-18T05:39:48;20.40;99.90
16174;DHT22;14031;50.158;8.626;2023-09-18T05:42:15;20.40;99.90
16174;DHT22;14031;50.158;8.626;2023-09-18T05:44:42;20.40;99.90
16174;DHT22;14031;50.158;8.626;2023-09-18T05:47:09;20.40;99.90
16174;DHT22;14031;50.158;8.626;2023-09-18T05:49:35;20.40;99.90
16174;DHT22;14031;50.158;8.626;2023-09-18T05:52:03;20.50;99.90
16174;DHT22;14031;50.158;8.626;2023-09-18T05:54:31;20.50;99.90
16174;DHT22;14031;50.158;8.626;2023-09-18T05:56:57;20.50;99.90
16174;DHT22;14031;50.158;8.626;2023-09-18T05:59:24;20.60;99.90
16174;DHT22;14031;50.158;8.626;2023-09-18T06:01:51;20.60;99.90
16174;DHT22;14031;50.158;8.626;2023-09-18T06:04:19;20.60;99.90
16174;DHT22;14031;50.158;8.626;2023-09-18T06:06:46;20.60;99.90
16174;DHT22;14031;50.158;8.626;2023-09-18T06:09:13;20.60;99.90
16174;DHT22;14031;50.158;8.626;2023-09-18T06:11:41;20.60;99.90
16174;DHT22;14031;50.158;8.626;2023-09-18T06:14:09;20.70;99.90
16174;DHT22;14031;50.158;8.626;2023-09-18T06:16:36;20.60;99.90
16174;DHT22;14031;50.158;8.626;2023-09-18T06:19:03;20.60;99.90
16174;DHT22;14031;50.158;8.626;2023-09-18T06:21:29;20.60;99.90
16174;DHT22;14031;50.158;8.626;2023-09-18T06:23:56;20.70;99.90
16174;DHT22;14031;50.158;8.626;2023-09-18T06:26:23;20.70;99.90
16174;DHT22;14031;50.158;8.626;2023-09-18T06:28:51;20.70;99.90
16174;DHT22;14031;50.158;8.626;2023-09-18T06:31:20;20.60;99.90
16174;DHT22;14031;50.158;8.626;2023-09-18T06:33:49;20.70;99.90
16174;DHT22;14031;50.158;8.626;2023-09-18T06:36:15;20.70;99.90
16174;DHT22;14031;50.158;8.626;2023-09-18T06:38:42;20.70;99.90
16174;DHT22;14031;50.158;8.626;2023-09-18T06:41:09;20.60;99.90
16174;DHT22;14031;50.158;8.626;2023-09-18T06:43:35;20.70;99.90
16174;DHT22;14031;50.158;8.626;2023-09-18T06:46:04;20.70;99.90
16174;DHT22;14031;50.158;8.626;2023-09-18T06:48:30;20.60;99.90
16174;DHT22;14031;50.158;8.626;2023-09-18T06:50:58;20.70;99.90
16174;DHT22;14031;50.158;8.626;2023-09-18T06:53:25;20.70;99.90
16174;DHT22;14031;50.158;8.626;2023-09-18T06:55:52;20.70;99.90
16174;DHT22;14031;50.158;8.626;2023-09-18T06:58:19;20.80;99.90
16174;DHT22;14031;50.158;8.626;2023-09-18T07:00:46;20.70;99.90
16174;DHT22;14031;50.158;8.626;2023-09-18T07:03:17;20.80;99.90
16174;DHT22;14031;50.158;8.626;2023-09-18T07:05:43;20.90;99.90
16174;DHT22;14031;50.158;8.626;2023-09-18T07:08:11;20.90;99.90
16174;DHT22;14031;50.158;8.626;2023-09-18T07:10:39;21.00;99.90
16174;DHT22;14031;50.158;8.626;2023-09-18T07:13:06;21.00;99.90
16174;DHT22;14031;50.158;8.626;2023-09-18T07:15:33;21.00;99.90
16174;DHT22;14031;50.158;8.626;2023-09-18T07:17:59;21.10;99.90
16174;DHT22;14031;50.158;8.626;2023-09-18T07:20:28;21.00;99.90
16174;DHT22;14031;50.158;8.626;2023-09-18T07:22:55;21.10;99.90
16174;DHT22;14031;50.158;8.626;2023-09-18T07:25:23;21.10;99.90
16174;DHT22;14031;50.158;8.626;2023-09-18T07:27:49;21.10;99.90
16174;DHT22;14031;50.158;8.626;2023-09-18T07:30:16;21.20;99.90
16174;DHT22;14031;50.158;8.626;2023-09-18T07:32:45;21.20;99.90
16174;DHT22;14031;50.158;8.626;2023-09-18T07:35:12;21.20;99.90
16174;DHT22;14031;50.158;8.626;2023-09-18T07:37:41;21.20;99.90
16174;DHT22;14031;50.158;8.626;2023-09-18T07:40:10;21.20;99.90
16174;DHT22;14031;50.158;8.626;2023-09-18T07:42:37;21.30;99.90
16174;DHT22;14031;50.158;8.626;2023-09-18T07:45:04;21.30;99.90
16174;DHT22;14031;50.158;8.626;2023-09-18T07:47:31;21.30;99.90
16174;DHT22;14031;50.158;8.626;2023-09-18T07:49:58;21.40;99.90
16174;DHT22;14031;50.158;8.626;2023-09-18T07:52:24;21.40;99.90
16174;DHT22;14031;50.158;8.626;2023-09-18T07:54:53;21.40;99.90
16174;DHT22;14031;50.158;8.626;2023-09-18T07:57:19;21.50;99.90
16174;DHT22;14031;50.158;8.626;2023-09-18T07:59:48;21.50;99.90
16174;DHT22;14031;50.158;8.626;2023-09-18T08:02:15;21.50;99.90
16174;DHT22;14031;50.158;8.626;2023-09-18T08:04:42;21.60;99.90
16174;DHT22;14031;50.158;8.626;2023-09-18T08:07:09;21.70;99.90
16174;DHT22;14031;50.158;8.626;2023-09-18T08:09:38;21.70;99.90
16174;DHT22;14031;50.158;8.626;2023-09-18T08:12:07;21.80;99.90
16174;DHT22;14031;50.158;8.626;2023-09-18T08:14:34;21.90;99.90
16174;DHT22;14031;50.158;8.626;2023-09-18T08:17:02;22.00;99.90
16174;DHT22;14031;50.158;8.626;2023-09-18T08:19:30;22.00;99.90
16174;DHT22;14031;50.158;8.626;2023-09-18T08:21:57;22.10;99.90
16174;DHT22;14031;50.158;8.626;2023-09-18T08:24:25;22.10;99.90
16174;DHT22;14031;50.158;8.626;2023-09-18T08:26:52;22.30;99.90
16174;DHT22;14031;50.158;8.626;2023-09-18T08:29:21;22.40;99.90
16174;DHT22;14031;50.158;8.626;2023-09-18T08:31:48;22.50;99.90
16174;DHT22;14031;50.158;8.626;2023-09-18T08:34:15;22.60;99.90
16174;DHT22;14031;50.158;8.626;2023-09-18T08:36:42;22.70;99.90
16174;DHT22;14031;50.158;8.626;2023-09-18T08:39:09;22.80;99.90
16174;DHT22;14031;50.158;8.626;2023-09-18T08:41:40;22.90;99.90
16174;DHT22;14031;50.158;8.626;2023-09-18T08:44:09;22.90;99.90
16174;DHT22;14031;50.158;8.626;2023-09-18T08:46:37;22.90;99.90
16174;DHT22;14031;50.158;8.626;2023-09-18T08:49:04;22.90;99.90
16174;DHT22;14031;50.158;8.626;2023-09-18T08:51:32;23.00;99.90
16174;DHT22;14031;50.158;8.626;2023-09-18T08:53:59;23.00;99.90
16174;DHT22;14031;50.158;8.626;2023-09-18T08:56:29;23.00;99.90
16174;DHT22;14031;50.158;8.626;2023-09-18T08:58:56;23.00;99.90
16174;DHT22;14031;50.158;8.626;2023-09-18T09:01:25;22.90;99.90
16174;DHT22;14031;50.158;8.626;2023-09-18T09:03:53;23.00;99.90
16174;DHT22;14031;50.158;8.626;2023-09-18T09:06:20;23.00;99.90
16174;DHT22;14031;50.158;8.626;2023-09-18T09:08:47;23.10;99.90
16174;DHT22;14031;50.158;8.626;2023-09-18T09:11:14;23.10;99.90
16174;DHT22;14031;50.158;8.626;2023-09-18T09:13:41;23.10;99.90
16174;DHT22;14031;50.158;8.626;2023-09-18T09:16:11;23.00;99.90
16174;DHT22;14031;50.158;8.626;2023-09-18T09:18:48;23.00;99.90
16174;DHT22;14031;50.158;8.626;2023-09-18T09:21:16;23.00;99.90
16174;DHT22;14031;50.158;8.626;2023-09-18T09:23:47;22.90;99.90
16174;DHT22;14031;50.158;8.626;2023-09-18T09:26:18;22.80;99.90
16174;DHT22;14031;50.158;8.626;2023-09-18T09:28:46;22.70;99.90
16174;DHT22;14031;50.158;8.626;2023-09-18T09:31:23;22.70;99.90
16174;DHT22;14031;50.158;8.626;2023-09-18T09:33:51;22.60;99.90
16174;DHT22;14031;50.158;8.626;2023-09-18T09:36:20;22.60;99.90
16174;DHT22;14031;50.158;8.626;2023-09-18T09:38:47;22.70;99.90
16174;DHT22;14031;50.158;8.626;2023-09-18T09:41:15;22.60;99.90
16174;DHT22;14031;50.158;8.626;2023-09-18T09:43:43;22.60;99.90
16174;DHT22;14031;50.158;8.626;2023-09-18T09:46:15;22.50;99.90
16174;DHT22;14031;50.158;8.626;2023-09-18T09:48:58;22.50;99.90
16174;DHT22;14031;50.158;8.626;2023-09-18T09:51:28;22.50;99.90
16174;DHT22;14031;50.158;8.626;2023-09-18T09:53:55;22.50;99.90
16174;DHT22;14031;50.158;8.626;2023-09-18T09:56:42;22.40;99.90
16174;DHT22;14031;50.158;8.626;2023-09-18T09:59:11;22.40;99.90
16174;DHT22;14031;50.158;8.626;2023-09-18T10:01:38;22.30;99.90
16174;DHT22;14031;50.158;8.626;2023-09-18T10:04:09;22.30;99.90
16174;DHT22;14031;50.158;8.626;2023-09-18T10:06:38;22.30;99.90
16174;DHT22;14031;50.158;8.626;2023-09-18T10:09:07;22.30;99.90
16174;DHT22;14031;50.158;8.626;2023-09-18T10:11:40;22.40;99.90
16174;DHT22;14031;50.158;8.626;2023-09-18T10:14:11;22.40;99.90
16174;DHT22;14031;50.158;8.626;2023-09-18T10:16:41;22.50;99.90
16174;DHT22;14031;50.158;8.626;2023-09-18T10:19:14;22.50;99.90
16174;DHT22;14031;50.158;8.626;2023-09-18T10:21:53;22.60;99.90
16174;DHT22;14031;50.158;8.626;2023-09-18T10:24:24;22.60;99.90
16174;DHT22;14031;50.158;8.626;2023-09-18T10:26:56;22.70;99.90
16174;DHT22;14031;50.158;8.626;2023-09-18T10:29:23;22.70;99.90
16174;DHT22;14031;50.158;8.626;2023-09-18T10:31:51;22.70;99.90
16174;DHT22;14031;50.158;8.626;2023-09-18T10:34:19;22.80;99.90
16174;DHT22;14031;50.158;8.626;2023-09-18T10:36:49;22.80;99.90
16174;DHT22;14031;50.158;8.626;2023-09-18T10:39:16;22.90;99.90
16174;DHT22;14031;50.158;8.626;2023-09-18T10:41:47;23.00;99.90
16174;DHT22;14031;50.158;8.626;2023-09-18T10:44:14;23.00;99.90
16174;DHT22;14031;50.158;8.626;2023-09-18T10:46:42;23.00;99.90
16174;DHT22;14031;50.158;8.626;2023-09-18T10:49:09;23.10;99.90
16174;DHT22;14031;50.158;8.626;2023-09-18T10:51:37;23.10;99.90
16174;DHT22;14031;50.158;8.626;2023-09-18T10:54:10;23.10;99.90
16174;DHT22;14031;50.158;8.626;2023-09-18T10:56:37;23.30;99.90
16174;DHT22;14031;50.158;8.626;2023-09-18T10:59:08;23.40;99.90
16174;DHT22;14031;50.158;8.626;2023-09-18T11:01:35;23.50;99.90
16174;DHT22;14031;50.158;8.626;2023-09-18T11:04:04;23.60;99.90
16174;DHT22;14031;50.158;8.626;2023-09-18T11:09:44;23.80;99.90
16174;DHT22;14031;50.158;8.626;2023-09-18T11:12:12;23.90;99.90
16174;DHT22;14031;50.158;8.626;2023-09-18T11:14:42;24.00;99.90
16174;DHT22;14031;50.158;8.626;2023-09-18T11:17:28;24.10;99.90
16174;DHT22;14031;50.158;8.626;2023-09-18T11:20:05;24.10;99.90
16174;DHT22;14031;50.158;8.626;2023-09-18T11:22:35;24.20;99.90
16174;DHT22;14031;50.158;8.626;2023-09-18T11:25:37;24.20;99.90
16174;DHT22;14031;50.158;8.626;2023-09-18T11:28:05;24.30;99.90
16174;DHT22;14031;50.158;8.626;2023-09-18T11:30:36;24.30;99.90
16174;DHT22;14031;50.158;8.626;2023-09-18T11:33:04;24.40;99.90
16174;DHT22;14031;50.158;8.626;2023-09-18T11:35:32;24.30;99.90
16174;DHT22;14031;50.158;8.626;2023-09-18T11:38:07;24.30;99.90
16174;DHT22;14031;50.158;8.626;2023-09-18T11:40:37;24.30;99.90
16174;DHT22;14031;50.158;8.626;2023-09-18T11:43:21;24.40;99.90
16174;DHT22;14031;50.158;8.626;2023-09-18T11:45:51;24.40;99.90
16174;DHT22;14031;50.158;8.626;2023-09-18T11:48:19;24.40;99.90
16174;DHT22;14031;50.158;8.626;2023-09-18T11:50:47;24.50;99.90
16174;DHT22;14031;50.158;8.626;2023-09-18T11:53:16;24.50;99.90
16174;DHT22;14031;50.158;8.626;2023-09-18T11:55:50;24.50;99.90
16174;DHT22;14031;50.158;8.626;2023-09-18T11:58:17;24.50;99.90
16174;DHT22;14031;50.158;8.626;2023-09-18T12:00:49;24.50;99.90
16174;DHT22;14031;50.158;8.626;2023-09-18T12:03:17;24.50;99.90
16174;DHT22;14031;50.158;8.626;2023-09-18T12:06:02;24.60;99.90
16174;DHT22;14031;50.158;8.626;2023-09-18T12:08:31;24.60;99.90
16174;DHT22;14031;50.158;8.626;2023-09-18T12:10:59;24.60;99.90
16174;DHT22;14031;50.158;8.626;2023-09-18T12:13:29;24.60;99.90
16174;DHT22;14031;50.158;8.626;2023-09-18T12:15:56;24.60;99.90
16174;DHT22;14031;50.158;8.626;2023-09-18T12:18:24;24.60;99.90
16174;DHT22;14031;50.158;8.626;2023-09-18T12:20:54;24.60;99.90
16174;DHT22;14031;50.158;8.626;2023-09-18T12:23:24;24.60;99.90
16174;DHT22;14031;50.158;8.626;2023-09-18T12:25:59;24.60;99.90
16174;DHT22;14031;50.158;8.626;2023-09-18T12:28:27;24.70;99.90
16174;DHT22;14031;50.158;8.626;2023-09-18T12:30:56;24.70;99.90
16174;DHT22;14031;50.158;8.626;2023-09-18T12:33:25;24.80;99.90
16174;DHT22;14031;50.158;8.626;2023-09-18T12:35:52;24.90;99.90
16174;DHT22;14031;50.158;8.626;2023-09-18T12:38:19;25.10;99.90
16174;DHT22;14031;50.158;8.626;2023-09-18T12:40:50;25.20;99.90
16174;DHT22;14031;50.158;8.626;2023-09-18T12:43:20;25.40;99.90
16174;DHT22;14031;50.158;8.626;2023-09-18T12:45:48;25.50;99.90
16174;DHT22;14031;50.158;8.626;2023-09-18T12:48:16;25.80;99.90
16174;DHT22;14031;50.158;8.626;2023-09-18T12:50:42;26.10;99.90
16174;DHT22;14031;50.158;8.626;2023-09-18T12:53:10;26.30;99.90
16174;DHT22;14031;50.158;8.626;2023-09-18T12:55:38;26.40;99.90
16174;DHT22;14031;50.158;8.626;2023-09-18T12:58:06;26.50;99.90
16174;DHT22;14031;50.158;8.626;2023-09-18T13:00:35;26.70;99.90
16174;DHT22;14031;50.158;8.626;2023-09-18T13:03:03;26.80;99.90
16174;DHT22;14031;50.158;8.626;2023-09-18T13:05:30;27.10;99.90
16174;DHT22;14031;50.158;8.626;2023-09-18T13:08:03;27.10;99.90
16174;DHT22;14031;50.158;8.626;2023-09-18T13:10:41;27.10;99.90
16174;DHT22;14031;50.158;8.626;2023-09-18T13:13:07;27.20;99.90
16174;DHT22;14031;50.158;8.626;2023-09-18T13:15:43;27.00;99.90
16174;DHT22;14031;50.158;8.626;2023-09-18T13:18:11;26.90;99.90
16174;DHT22;14031;50.158;8.626;2023-09-18T13:20:38;26.70;99.90
16174;DHT22;14031;50.158;8.626;2023-09-18T13:23:06;26.60;99.90
16174;DHT22;14031;50.158;8.626;2023-09-18T13:25:34;26.40;99.90
16174;DHT22;14031;50.158;8.626;2023-09-18T13:28:04;26.30;99.90
16174;DHT22;14031;50.158;8.626;2023-09-18T13:30:31;26.20;99.90
16174;DHT22;14031;50.158;8.626;2023-09-18T13:33:05;26.20;99.90
16174;DHT22;14031;50.158;8.626;2023-09-18T13:35:33;26.30;99.90
16174;DHT22;14031;50.158;8.626;2023-09-18T13:38:00;26.30;99.90
16174;DHT22;14031;50.158;8.626;2023-09-18T13:40:27;26.40;99.90
16174;DHT22;14031;50.158;8.626;2023-09-18T13:42:54;26.20;99.90
16174;DHT22;14031;50.158;8.626;2023-09-18T13:45:21;26.10;99.90
16174;DHT22;14031;50.158;8.626;2023-09-18T13:47:48;25.90;99.90
16174;DHT22;14031;50.158;8.626;2023-09-18T13:50:17;25.80;99.90
16174;DHT22;14031;50.158;8.626;2023-09-18T13:52:44;25.70;99.90
16174;DHT22;14031;50.158;8.626;2023-09-18T13:55:10;25.60;99.90
16174;DHT22;14031;50.158;8.626;2023-09-18T13:57:37;25.60;99.90
16174;DHT22;14031;50.158;8.626;2023-09-18T14:00:06;25.70;99.90
16174;DHT22;14031;50.158;8.626;2023-09-18T14:02:34;25.90;99.90
16174;DHT22;14031;50.158;8.626;2023-09-18T14:05:00;26.00;99.90
16174;DHT22;14031;50.158;8.626;2023-09-18T14:07:30;26.00;99.90
16174;DHT22;14031;50.158;8.626;2023-09-18T14:09:57;26.00;99.90
16174;DHT22;14031;50.158;8.626;2023-09-18T14:12:24;26.00;99.90
16174;DHT22;14031;50.158;8.626;2023-09-18T14:14:51;26.10;99.90
16174;DHT22;14031;50.158;8.626;2023-09-18T14:17:17;26.10;99.90
16174;DHT22;14031;50.158;8.626;2023-09-18T14:19:47;26.30;99.90
16174;DHT22;14031;50.158;8.626;2023-09-18T14:22:14;26.60;99.90
16174;DHT22;14031;50.158;8.626;2023-09-18T14:24:42;26.80;99.90
16174;DHT22;14031;50.158;8.626;2023-09-18T14:27:08;26.90;99.90
16174;DHT22;14031;50.158;8.626;2023-09-18T14:29:38;27.00;99.90
16174;DHT22;14031;50.158;8.626;2023-09-18T14:32:05;27.20;99.90
16174;DHT22;14031;50.158;8.626;2023-09-18T14:34:33;27.60;99.90
16174;DHT22;14031;50.158;8.626;2023-09-18T14:37:01;28.10;99.90
16174;DHT22;14031;50.158;8.626;2023-09-18T14:39:29;28.50;99.90
16174;DHT22;14031;50.158;8.626;2023-09-18T14:41:57;29.00;99.90
16174;DHT22;14031;50.158;8.626;2023-09-18T14:44:25;29.40;99.90
16174;DHT22;14031;50.158;8.626;2023-09-18T14:46:52;29.60;99.90
16174;DHT22;14031;50.158;8.626;2023-09-18T14:49:19;29.80;99.90
16174;DHT22;14031;50.158;8.626;2023-09-18T14:51:46;29.70;99.90
16174;DHT22;14031;50.158;8.626;2023-09-18T14:54:15;29.90;99.90
16174;DHT22;14031;50.158;8.626;2023-09-18T14:56:41;30.30;99.90
16174;DHT22;14031;50.158;8.626;2023-09-18T14:59:12;30.60;99.90
16174;DHT22;14031;50.158;8.626;2023-09-18T15:01:38;30.40;99.90
16174;DHT22;14031;50.158;8.626;2023-09-18T15:04:08;29.90;99.90
16174;DHT22;14031;50.158;8.626;2023-09-18T15:06:35;29.30;99.90
16174;DHT22;14031;50.158;8.626;2023-09-18T15:09:02;28.70;99.90
16174;DHT22;14031;50.158;8.626;2023-09-18T15:11:29;28.10;99.90
16174;DHT22;14031;50.158;8.626;2023-09-18T15:13:56;27.80;99.90
16174;DHT22;14031;50.158;8.626;2023-09-18T15:16:24;27.40;99.90
16174;DHT22;14031;50.158;8.626;2023-09-18T15:18:51;27.20;99.90
16174;DHT22;14031;50.158;8.626;2023-09-18T15:21:19;27.00;99.90
16174;DHT22;14031;50.158;8.626;2023-09-18T15:23:46;27.20;99.90
16174;DHT22;14031;50.158;8.626;2023-09-18T15:26:14;27.50;99.90
16174;DHT22;14031;50.158;8.626;2023-09-18T15:28:40;27.40;99.90
16174;DHT22;14031;50.158;8.626;2023-09-18T15:31:07;27.10;99.90
16174;DHT22;14031;50.158;8.626;2023-09-18T15:33:35;26.90;99.90
16174;DHT22;14031;50.158;8.626;2023-09-18T15:36:04;27.00;99.90
16174;DHT22;14031;50.158;8.626;2023-09-18T15:38:30;27.40;99.90
16174;DHT22;14031;50.158;8.626;2023-09-18T15:40:57;27.50;99.90